sensor_id;sensor_type;location;lat;lon;timestamp;P1;durP1;ratioP1;P2;durP2;ratioP2
10479;SDS011;12789;42.610;23.040;2024-02-21T00:00:36;16.77;;;11.77;;
10479;SDS011;12789;42.610;23.040;2024-02-21T00:03:04;17.77;;;11.83;;
10479;SDS011;12789;42.610;23.040;2024-02-21T00:05:31;16.40;;;11.63;;
10479;SDS011;12789;42.610;23.040;2024-02-21T00:07:58;17.57;;;11.97;;
10479;SDS011;12789;42.610;23.040;2024-02-21T00:10:26;16.87;;;11.80;;
10479;SDS011;12789;42.610;23.040;2024-02-21T00:12:52;18.07;;;12.37;;
10479;SDS011;12789;42.610;23.040;2024-02-21T00:15:19;18.93;;;11.77;;
10479;SDS011;12789;42.610;23.040;2024-02-21T00:17:46;22.63;;;12.43;;
10479;SDS011;12789;42.610;23.040;2024-02-21T00:20:14;20.57;;;12.63;;
10479;SDS011;12789;42.610;23.040;2024-02-21T00:22:40;21.77;;;12.13;;
10479;SDS011;12789;42.610;23.040;2024-02-21T00:25:07;17.67;;;11.73;;
10479;SDS011;12789;42.610;23.040;2024-02-21T00:27:35;21.80;;;13.47;;
10479;SDS011;12789;42.610;23.040;2024-02-21T00:30:02;25.80;;;14.43;;
10479;SDS011;12789;42.610;23.040;2024-02-21T00:32:28;27.40;;;15.03;;
10479;SDS011;12789;42.610;23.040;2024-02-21T00:34:55;24.87;;;15.23;;
10479;SDS011;12789;42.610;23.040;2024-02-21T00:37:21;25.57;;;15.13;;
10479;SDS011;12789;42.610;23.040;2024-02-21T00:39:48;27.87;;;14.00;;
10479;SDS011;12789;42.610;23.040;2024-02-21T00:42:14;25.57;;;13.07;;
10479;SDS011;12789;42.610;23.040;2024-02-21T00:44:42;28.30;;;13.10;;
10479;SDS011;12789;42.610;23.040;2024-02-21T00:47:09;19.73;;;11.93;;
10479;SDS011;12789;42.610;23.040;2024-02-21T00:49:36;21.47;;;12.03;;
10479;SDS011;12789;42.610;23.040;2024-02-21T00:52:02;22.03;;;11.87;;
10479;SDS011;12789;42.610;23.040;2024-02-21T00:54:29;18.97;;;11.93;;
10479;SDS011;12789;42.610;23.040;2024-02-21T00:56:55;18.27;;;11.60;;
10479;SDS011;12789;42.610;23.040;2024-02-21T00:59:22;29.00;;;15.57;;
10479;SDS011;12789;42.610;23.040;2024-02-21T01:01:50;30.40;;;16.67;;
10479;SDS011;12789;42.610;23.040;2024-02-21T01:04:16;33.43;;;17.17;;
10479;SDS011;12789;42.610;23.040;2024-02-21T01:06:43;38.20;;;18.83;;
10479;SDS011;12789;42.610;23.040;2024-02-21T01:09:10;32.87;;;18.67;;
10479;SDS011;12789;42.610;23.040;2024-02-21T01:11:36;34.27;;;17.87;;
10479;SDS011;12789;42.610;23.040;2024-02-21T01:14:03;34.90;;;17.80;;
10479;SDS011;12789;42.610;23.040;2024-02-21T01:16:29;31.07;;;17.00;;
10479;SDS011;12789;42.610;23.040;2024-02-21T01:18:57;16.53;;;11.07;;
10479;SDS011;12789;42.610;23.040;2024-02-21T01:21:24;16.40;;;11.20;;
10479;SDS011;12789;42.610;23.040;2024-02-21T01:23:50;17.60;;;10.80;;
10479;SDS011;12789;42.610;23.040;2024-02-21T01:26:17;20.17;;;11.93;;
10479;SDS011;12789;42.610;23.040;2024-02-21T01:28:43;18.63;;;11.80;;
10479;SDS011;12789;42.610;23.040;2024-02-21T01:31:10;19.70;;;11.80;;
10479;SDS011;12789;42.610;23.040;2024-02-21T01:33:38;20.17;;;11.77;;
10479;SDS011;12789;42.610;23.040;2024-02-21T01:36:06;22.67;;;12.43;;
10479;SDS011;12789;42.610;23.040;2024-02-21T01:38:32;22.13;;;12.40;;
10479;SDS011;12789;42.610;23.040;2024-02-21T01:40:59;25.60;;;12.57;;
10479;SDS011;12789;42.610;23.040;2024-02-21T01:43:26;25.03;;;13.73;;
10479;SDS011;12789;42.610;23.040;2024-02-21T01:45:53;28.27;;;14.70;;
10479;SDS011;12789;42.610;23.040;2024-02-21T01:48:19;24.93;;;13.60;;
10479;SDS011;12789;42.610;23.040;2024-02-21T01:50:48;22.47;;;13.07;;
10479;SDS011;12789;42.610;23.040;2024-02-21T01:53:17;20.77;;;12.33;;
10479;SDS011;12789;42.610;23.040;2024-02-21T01:55:44;19.10;;;12.00;;
10479;SDS011;12789;42.610;23.040;2024-02-21T01:58:12;21.30;;;12.20;;
10479;SDS011;12789;42.610;23.040;2024-02-21T02:00:38;21.03;;;12.60;;
10479;SDS011;12789;42.610;23.040;2024-02-21T02:03:07;18.90;;;12.03;;
10479;SDS011;12789;42.610;23.040;2024-02-21T02:05:35;17.90;;;10.87;;
10479;SDS011;12789;42.610;23.040;2024-02-21T02:08:01;17.57;;;11.67;;
10479;SDS011;12789;42.610;23.040;2024-02-21T02:10:29;16.93;;;11.33;;
10479;SDS011;12789;42.610;23.040;2024-02-21T02:12:56;18.10;;;11.37;;
10479;SDS011;12789;42.610;23.040;2024-02-21T02:15:22;15.50;;;11.37;;
10479;SDS011;12789;42.610;23.040;2024-02-21T02:17:49;14.73;;;10.17;;
10479;SDS011;12789;42.610;23.040;2024-02-21T02:20:15;15.87;;;10.40;;
10479;SDS011;12789;42.610;23.040;2024-02-21T02:22:42;13.57;;;10.10;;
10479;SDS011;12789;42.610;23.040;2024-02-21T02:25:10;20.40;;;12.07;;
10479;SDS011;12789;42.610;23.040;2024-02-21T02:27:43;18.77;;;12.50;;
10479;SDS011;12789;42.610;23.040;2024-02-21T02:30:11;18.03;;;11.40;;
10479;SDS011;12789;42.610;23.040;2024-02-21T02:32:37;15.60;;;10.90;;
10479;SDS011;12789;42.610;23.040;2024-02-21T02:35:04;14.93;;;10.93;;
10479;SDS011;12789;42.610;23.040;2024-02-21T02:37:31;14.57;;;10.70;;
10479;SDS011;12789;42.610;23.040;2024-02-21T02:39:57;16.80;;;10.93;;
10479;SDS011;12789;42.610;23.040;2024-02-21T02:42:25;22.27;;;12.23;;
10479;SDS011;12789;42.610;23.040;2024-02-21T02:44:51;20.77;;;12.30;;
10479;SDS011;12789;42.610;23.040;2024-02-21T02:47:18;18.50;;;12.27;;
10479;SDS011;12789;42.610;23.040;2024-02-21T02:49:44;14.57;;;11.23;;
10479;SDS011;12789;42.610;23.040;2024-02-21T02:52:15;15.83;;;10.83;;
10479;SDS011;12789;42.610;23.040;2024-02-21T02:54:42;18.00;;;11.50;;
10479;SDS011;12789;42.610;23.040;2024-02-21T02:57:08;24.70;;;13.63;;
10479;SDS011;12789;42.610;23.040;2024-02-21T02:59:37;31.80;;;15.53;;
10479;SDS011;12789;42.610;23.040;2024-02-21T03:02:03;31.27;;;13.83;;
10479;SDS011;12789;42.610;23.040;2024-02-21T03:04:30;23.40;;;12.87;;
10479;SDS011;12789;42.610;23.040;2024-02-21T03:06:56;21.90;;;12.23;;
10479;SDS011;12789;42.610;23.040;2024-02-21T03:09:23;18.97;;;11.77;;
10479;SDS011;12789;42.610;23.040;2024-02-21T03:11:49;24.60;;;11.73;;
10479;SDS011;12789;42.610;23.040;2024-02-21T03:14:16;18.70;;;11.37;;
10479;SDS011;12789;42.610;23.040;2024-02-21T03:16:43;19.10;;;12.53;;
10479;SDS011;12789;42.610;23.040;2024-02-21T03:19:10;21.83;;;12.50;;
10479;SDS011;12789;42.610;23.040;2024-02-21T03:21:37;16.30;;;10.50;;
10479;SDS011;12789;42.610;23.040;2024-02-21T03:24:03;16.00;;;10.77;;
10479;SDS011;12789;42.610;23.040;2024-02-21T03:26:30;15.50;;;11.23;;
10479;SDS011;12789;42.610;23.040;2024-02-21T03:28:57;16.60;;;10.77;;
10479;SDS011;12789;42.610;23.040;2024-02-21T03:31:23;18.17;;;10.30;;
10479;SDS011;12789;42.610;23.040;2024-02-21T03:33:51;15.70;;;10.37;;
10479;SDS011;12789;42.610;23.040;2024-02-21T03:36:18;19.17;;;10.47;;
10479;SDS011;12789;42.610;23.040;2024-02-21T03:38:44;16.80;;;10.40;;
10479;SDS011;12789;42.610;23.040;2024-02-21T03:41:11;22.83;;;12.57;;
10479;SDS011;12789;42.610;23.040;2024-02-21T03:43:37;20.90;;;13.20;;
10479;SDS011;12789;42.610;23.040;2024-02-21T03:46:04;19.80;;;11.67;;
10479;SDS011;12789;42.610;23.040;2024-02-21T03:48:30;20.73;;;12.57;;
10479;SDS011;12789;42.610;23.040;2024-02-21T03:50:58;22.73;;;13.10;;
10479;SDS011;12789;42.610;23.040;2024-02-21T03:53:24;24.43;;;13.70;;
10479;SDS011;12789;42.610;23.040;2024-02-21T03:55:51;26.67;;;14.57;;
10479;SDS011;12789;42.610;23.040;2024-02-21T03:58:18;26.90;;;14.53;;
10479;SDS011;12789;42.610;23.040;2024-02-21T04:00:45;27.47;;;15.57;;
10479;SDS011;12789;42.610;23.040;2024-02-21T04:03:11;28.00;;;16.10;;
10479;SDS011;12789;42.610;23.040;2024-02-21T04:05:38;31.90;;;17.53;;
10479;SDS011;12789;42.610;23.040;2024-02-21T04:08:06;28.00;;;17.40;;
10479;SDS011;12789;42.610;23.040;2024-02-21T04:10:33;33.47;;;18.77;;
10479;SDS011;12789;42.610;23.040;2024-02-21T04:12:59;37.30;;;20.23;;
10479;SDS011;12789;42.610;23.040;2024-02-21T04:15:26;33.67;;;18.13;;
10479;SDS011;12789;42.610;23.040;2024-02-21T04:17:52;27.97;;;17.10;;
10479;SDS011;12789;42.610;23.040;2024-02-21T04:20:18;34.27;;;17.73;;
10479;SDS011;12789;42.610;23.040;2024-02-21T04:22:44;28.07;;;15.33;;
10479;SDS011;12789;42.610;23.040;2024-02-21T04:25:12;31.67;;;16.03;;
10479;SDS011;12789;42.610;23.040;2024-02-21T04:27:39;23.50;;;15.63;;
10479;SDS011;12789;42.610;23.040;2024-02-21T04:30:06;20.87;;;13.70;;
10479;SDS011;12789;42.610;23.040;2024-02-21T04:32:32;19.87;;;13.40;;
10479;SDS011;12789;42.610;23.040;2024-02-21T04:34:59;20.93;;;13.93;;
10479;SDS011;12789;42.610;23.040;2024-02-21T04:37:28;20.70;;;13.60;;
10479;SDS011;12789;42.610;23.040;2024-02-21T04:39:55;21.27;;;13.50;;
10479;SDS011;12789;42.610;23.040;2024-02-21T04:42:23;15.10;;;11.73;;
10479;SDS011;12789;42.610;23.040;2024-02-21T04:44:50;15.93;;;11.87;;
10479;SDS011;12789;42.610;23.040;2024-02-21T04:47:16;18.63;;;11.33;;
10479;SDS011;12789;42.610;23.040;2024-02-21T04:49:43;14.17;;;10.53;;
10479;SDS011;12789;42.610;23.040;2024-02-21T04:52:11;14.17;;;9.10;;
10479;SDS011;12789;42.610;23.040;2024-02-21T04:54:37;13.63;;;9.43;;
10479;SDS011;12789;42.610;23.040;2024-02-21T04:57:04;29.97;;;18.50;;
10479;SDS011;12789;42.610;23.040;2024-02-21T04:59:33;18.17;;;12.10;;
10479;SDS011;12789;42.610;23.040;2024-02-21T05:02:04;18.23;;;11.60;;
10479;SDS011;12789;42.610;23.040;2024-02-21T05:04:33;20.10;;;12.17;;
10479;SDS011;12789;42.610;23.040;2024-02-21T05:07:02;23.27;;;13.83;;
10479;SDS011;12789;42.610;23.040;2024-02-21T05:09:28;119.47;;;63.03;;
10479;SDS011;12789;42.610;23.040;2024-02-21T05:11:55;58.33;;;31.27;;
10479;SDS011;12789;42.610;23.040;2024-02-21T05:14:24;20.03;;;15.13;;
10479;SDS011;12789;42.610;23.040;2024-02-21T05:16:53;24.97;;;13.70;;
10479;SDS011;12789;42.610;23.040;2024-02-21T05:19:20;21.53;;;13.40;;
10479;SDS011;12789;42.610;23.040;2024-02-21T05:21:46;19.47;;;11.27;;
10479;SDS011;12789;42.610;23.040;2024-02-21T05:24:13;16.70;;;11.20;;
10479;SDS011;12789;42.610;23.040;2024-02-21T05:26:39;19.37;;;11.73;;
10479;SDS011;12789;42.610;23.040;2024-02-21T05:29:05;22.33;;;12.97;;
10479;SDS011;12789;42.610;23.040;2024-02-21T05:31:42;17.17;;;12.13;;
10479;SDS011;12789;42.610;23.040;2024-02-21T05:34:22;23.10;;;14.00;;
10479;SDS011;12789;42.610;23.040;2024-02-21T05:36:48;35.63;;;18.83;;
10479;SDS011;12789;42.610;23.040;2024-02-21T05:39:15;38.03;;;20.23;;
10479;SDS011;12789;42.610;23.040;2024-02-21T05:41:42;40.77;;;22.83;;
10479;SDS011;12789;42.610;23.040;2024-02-21T05:44:08;31.70;;;15.50;;
10479;SDS011;12789;42.610;23.040;2024-02-21T05:46:35;19.53;;;13.40;;
10479;SDS011;12789;42.610;23.040;2024-02-21T05:49:01;16.37;;;11.67;;
10479;SDS011;12789;42.610;23.040;2024-02-21T05:51:31;16.10;;;11.43;;
10479;SDS011;12789;42.610;23.040;2024-02-21T05:53:58;24.07;;;14.50;;
10479;SDS011;12789;42.610;23.040;2024-02-21T05:56:25;24.23;;;12.90;;
10479;SDS011;12789;42.610;23.040;2024-02-21T05:58:51;21.93;;;13.87;;
10479;SDS011;12789;42.610;23.040;2024-02-21T06:01:17;21.97;;;15.10;;
10479;SDS011;12789;42.610;23.040;2024-02-21T06:03:44;25.37;;;15.67;;
10479;SDS011;12789;42.610;23.040;2024-02-21T06:06:11;49.27;;;22.60;;
10479;SDS011;12789;42.610;23.040;2024-02-21T06:08:40;35.23;;;18.87;;
10479;SDS011;12789;42.610;23.040;2024-02-21T06:11:07;35.83;;;19.40;;
10479;SDS011;12789;42.610;23.040;2024-02-21T06:13:33;40.63;;;20.93;;
10479;SDS011;12789;42.610;23.040;2024-02-21T06:16:00;63.63;;;33.00;;
10479;SDS011;12789;42.610;23.040;2024-02-21T06:18:26;47.67;;;25.57;;
10479;SDS011;12789;42.610;23.040;2024-02-21T06:20:53;39.37;;;23.77;;
10479;SDS011;12789;42.610;23.040;2024-02-21T06:23:19;38.03;;;24.00;;
10479;SDS011;12789;42.610;23.040;2024-02-21T06:25:47;33.37;;;22.63;;
10479;SDS011;12789;42.610;23.040;2024-02-21T06:28:14;45.50;;;24.67;;
10479;SDS011;12789;42.610;23.040;2024-02-21T06:30:43;66.33;;;34.20;;
10479;SDS011;12789;42.610;23.040;2024-02-21T06:33:09;80.20;;;39.70;;
10479;SDS011;12789;42.610;23.040;2024-02-21T06:35:36;62.00;;;33.63;;
10479;SDS011;12789;42.610;23.040;2024-02-21T06:38:03;67.40;;;31.60;;
10479;SDS011;12789;42.610;23.040;2024-02-21T06:40:30;69.87;;;34.00;;
10479;SDS011;12789;42.610;23.040;2024-02-21T06:43:04;70.90;;;32.53;;
10479;SDS011;12789;42.610;23.040;2024-02-21T06:45:31;71.97;;;33.27;;
10479;SDS011;12789;42.610;23.040;2024-02-21T06:47:57;62.73;;;30.60;;
10479;SDS011;12789;42.610;23.040;2024-02-21T06:50:24;52.80;;;26.90;;
10479;SDS011;12789;42.610;23.040;2024-02-21T06:52:50;50.70;;;26.27;;
10479;SDS011;12789;42.610;23.040;2024-02-21T06:55:17;48.50;;;27.40;;
10479;SDS011;12789;42.610;23.040;2024-02-21T06:57:43;37.20;;;19.77;;
10479;SDS011;12789;42.610;23.040;2024-02-21T07:00:12;30.03;;;17.00;;
10479;SDS011;12789;42.610;23.040;2024-02-21T07:02:40;26.80;;;16.67;;
10479;SDS011;12789;42.610;23.040;2024-02-21T07:05:07;29.97;;;16.00;;
10479;SDS011;12789;42.610;23.040;2024-02-21T07:07:33;38.83;;;18.07;;
10479;SDS011;12789;42.610;23.040;2024-02-21T07:10:00;44.20;;;18.97;;
10479;SDS011;12789;42.610;23.040;2024-02-21T07:12:26;187.03;;;95.67;;
10479;SDS011;12789;42.610;23.040;2024-02-21T07:14:53;125.43;;;58.23;;
10479;SDS011;12789;42.610;23.040;2024-02-21T07:17:21;53.43;;;21.37;;
10479;SDS011;12789;42.610;23.040;2024-02-21T07:19:47;40.97;;;20.50;;
10479;SDS011;12789;42.610;23.040;2024-02-21T07:22:14;41.97;;;20.10;;
10479;SDS011;12789;42.610;23.040;2024-02-21T07:24:41;44.50;;;20.03;;
10479;SDS011;12789;42.610;23.040;2024-02-21T07:27:07;38.80;;;18.97;;
10479;SDS011;12789;42.610;23.040;2024-02-21T07:29:34;43.23;;;18.57;;
10479;SDS011;12789;42.610;23.040;2024-02-21T07:32:00;29.23;;;16.27;;
10479;SDS011;12789;42.610;23.040;2024-02-21T07:34:28;28.13;;;15.33;;
10479;SDS011;12789;42.610;23.040;2024-02-21T07:36:55;32.00;;;16.17;;
10479;SDS011;12789;42.610;23.040;2024-02-21T07:39:21;31.43;;;16.87;;
10479;SDS011;12789;42.610;23.040;2024-02-21T07:41:48;31.13;;;16.17;;
10479;SDS011;12789;42.610;23.040;2024-02-21T07:44:15;40.23;;;17.50;;
10479;SDS011;12789;42.610;23.040;2024-02-21T07:46:41;113.80;;;59.30;;
10479;SDS011;12789;42.610;23.040;2024-02-21T07:49:08;54.80;;;25.80;;
10479;SDS011;12789;42.610;23.040;2024-02-21T07:51:36;41.07;;;22.90;;
10479;SDS011;12789;42.610;23.040;2024-02-21T07:54:02;51.47;;;31.17;;
10479;SDS011;12789;42.610;23.040;2024-02-21T07:56:30;56.67;;;34.63;;
10479;SDS011;12789;42.610;23.040;2024-02-21T07:58:56;53.53;;;30.90;;
10479;SDS011;12789;42.610;23.040;2024-02-21T08:01:23;52.73;;;31.53;;
10479;SDS011;12789;42.610;23.040;2024-02-21T08:03:49;65.33;;;38.20;;
10479;SDS011;12789;42.610;23.040;2024-02-21T08:06:16;51.63;;;31.33;;
10479;SDS011;12789;42.610;23.040;2024-02-21T08:08:44;31.80;;;21.03;;
10479;SDS011;12789;42.610;23.040;2024-02-21T08:11:10;29.50;;;19.43;;
10479;SDS011;12789;42.610;23.040;2024-02-21T08:13:37;18.17;;;13.27;;
10479;SDS011;12789;42.610;23.040;2024-02-21T08:16:04;19.87;;;13.00;;
10479;SDS011;12789;42.610;23.040;2024-02-21T08:18:30;22.60;;;13.03;;
10479;SDS011;12789;42.610;23.040;2024-02-21T08:21:01;21.90;;;13.10;;
10479;SDS011;12789;42.610;23.040;2024-02-21T08:23:27;20.70;;;12.90;;
10479;SDS011;12789;42.610;23.040;2024-02-21T08:25:55;20.50;;;12.63;;
10479;SDS011;12789;42.610;23.040;2024-02-21T08:28:22;17.37;;;12.97;;
10479;SDS011;12789;42.610;23.040;2024-02-21T08:30:48;19.43;;;12.87;;
10479;SDS011;12789;42.610;23.040;2024-02-21T08:33:15;20.33;;;13.70;;
10479;SDS011;12789;42.610;23.040;2024-02-21T08:35:41;20.03;;;13.77;;
10479;SDS011;12789;42.610;23.040;2024-02-21T08:38:08;22.67;;;13.37;;
10479;SDS011;12789;42.610;23.040;2024-02-21T08:40:34;18.37;;;13.30;;
10479;SDS011;12789;42.610;23.040;2024-02-21T08:43:03;20.80;;;12.97;;
10479;SDS011;12789;42.610;23.040;2024-02-21T08:45:30;15.97;;;12.37;;
10479;SDS011;12789;42.610;23.040;2024-02-21T08:47:56;20.33;;;12.83;;
10479;SDS011;12789;42.610;23.040;2024-02-21T08:50:23;19.80;;;12.37;;
10479;SDS011;12789;42.610;23.040;2024-02-21T08:52:49;23.77;;;12.93;;
10479;SDS011;12789;42.610;23.040;2024-02-21T08:55:16;16.23;;;12.17;;
10479;SDS011;12789;42.610;23.040;2024-02-21T08:57:42;18.47;;;13.50;;
10479;SDS011;12789;42.610;23.040;2024-02-21T09:00:11;17.47;;;12.23;;
10479;SDS011;12789;42.610;23.040;2024-02-21T09:02:39;16.60;;;11.00;;
10479;SDS011;12789;42.610;23.040;2024-02-21T09:05:06;14.00;;;11.30;;
10479;SDS011;12789;42.610;23.040;2024-02-21T09:07:33;15.73;;;11.43;;
10479;SDS011;12789;42.610;23.040;2024-02-21T09:09:59;17.10;;;11.83;;
10479;SDS011;12789;42.610;23.040;2024-02-21T09:12:27;18.97;;;13.03;;
10479;SDS011;12789;42.610;23.040;2024-02-21T09:14:53;12.27;;;10.43;;
10479;SDS011;12789;42.610;23.040;2024-02-21T09:17:21;14.00;;;10.93;;
10479;SDS011;12789;42.610;23.040;2024-02-21T09:19:48;12.93;;;11.53;;
10479;SDS011;12789;42.610;23.040;2024-02-21T09:22:14;19.60;;;11.47;;
10479;SDS011;12789;42.610;23.040;2024-02-21T09:24:41;18.50;;;12.17;;
10479;SDS011;12789;42.610;23.040;2024-02-21T09:27:07;13.77;;;10.53;;
10479;SDS011;12789;42.610;23.040;2024-02-21T09:29:36;16.57;;;12.10;;
10479;SDS011;12789;42.610;23.040;2024-02-21T09:32:04;14.93;;;11.80;;
10479;SDS011;12789;42.610;23.040;2024-02-21T09:34:32;15.60;;;11.30;;
10479;SDS011;12789;42.610;23.040;2024-02-21T09:36:58;16.50;;;10.57;;
10479;SDS011;12789;42.610;23.040;2024-02-21T09:39:25;12.27;;;10.53;;
10479;SDS011;12789;42.610;23.040;2024-02-21T09:41:53;35.33;;;22.03;;
10479;SDS011;12789;42.610;23.040;2024-02-21T09:44:21;12.47;;;10.27;;
10479;SDS011;12789;42.610;23.040;2024-02-21T09:46:52;10.80;;;9.03;;
10479;SDS011;12789;42.610;23.040;2024-02-21T09:49:21;9.90;;;8.90;;
10479;SDS011;12789;42.610;23.040;2024-02-21T09:51:53;11.60;;;9.33;;
10479;SDS011;12789;42.610;23.040;2024-02-21T09:54:21;10.13;;;9.00;;
10479;SDS011;12789;42.610;23.040;2024-02-21T09:56:48;9.20;;;8.27;;
10479;SDS011;12789;42.610;23.040;2024-02-21T09:59:14;13.00;;;9.37;;
10479;SDS011;12789;42.610;23.040;2024-02-21T10:01:42;11.57;;;9.27;;
10479;SDS011;12789;42.610;23.040;2024-02-21T10:04:08;12.80;;;11.40;;
10479;SDS011;12789;42.610;23.040;2024-02-21T10:06:35;9.83;;;8.83;;
10479;SDS011;12789;42.610;23.040;2024-02-21T10:09:03;11.03;;;9.20;;
10479;SDS011;12789;42.610;23.040;2024-02-21T10:11:30;10.27;;;7.77;;
10479;SDS011;12789;42.610;23.040;2024-02-21T10:14:05;12.87;;;8.93;;
10479;SDS011;12789;42.610;23.040;2024-02-21T10:16:32;10.80;;;8.40;;
10479;SDS011;12789;42.610;23.040;2024-02-21T10:18:59;10.57;;;7.97;;
10479;SDS011;12789;42.610;23.040;2024-02-21T10:21:26;12.57;;;10.20;;
10479;SDS011;12789;42.610;23.040;2024-02-21T10:23:52;11.60;;;8.47;;
10479;SDS011;12789;42.610;23.040;2024-02-21T10:26:20;11.00;;;8.13;;
10479;SDS011;12789;42.610;23.040;2024-02-21T10:28:47;7.97;;;7.18;;
10479;SDS011;12789;42.610;23.040;2024-02-21T10:31:23;7.03;;;6.33;;
10479;SDS011;12789;42.610;23.040;2024-02-21T10:33:53;7.78;;;6.70;;
10479;SDS011;12789;42.610;23.040;2024-02-21T10:36:20;8.55;;;6.97;;
10479;SDS011;12789;42.610;23.040;2024-02-21T10:38:46;9.80;;;8.70;;
10479;SDS011;12789;42.610;23.040;2024-02-21T10:41:13;8.20;;;7.30;;
10479;SDS011;12789;42.610;23.040;2024-02-21T10:43:41;7.35;;;6.50;;
10479;SDS011;12789;42.610;23.040;2024-02-21T10:46:10;7.05;;;6.10;;
10479;SDS011;12789;42.610;23.040;2024-02-21T10:48:43;7.65;;;5.53;;
10479;SDS011;12789;42.610;23.040;2024-02-21T10:51:14;6.77;;;6.03;;
10479;SDS011;12789;42.610;23.040;2024-02-21T10:53:42;7.40;;;6.70;;
10479;SDS011;12789;42.610;23.040;2024-02-21T10:56:13;7.40;;;6.70;;
10479;SDS011;12789;42.610;23.040;2024-02-21T11:08:03;6.50;;;5.23;;
10479;SDS011;12789;42.610;23.040;2024-02-21T11:10:36;7.23;;;5.33;;
10479;SDS011;12789;42.610;23.040;2024-02-21T11:43:46;6.70;;;6.10;;
10479;SDS011;12789;42.610;23.040;2024-02-21T11:46:18;5.67;;;5.17;;
10479;SDS011;12789;42.610;23.040;2024-02-21T11:49:21;7.00;;;6.27;;
10479;SDS011;12789;42.610;23.040;2024-02-21T12:01:53;10.97;;;8.17;;
10479;SDS011;12789;42.610;23.040;2024-02-21T12:04:19;9.27;;;6.93;;
10479;SDS011;12789;42.610;23.040;2024-02-21T12:06:46;6.70;;;6.07;;
10479;SDS011;12789;42.610;23.040;2024-02-21T12:09:13;9.47;;;7.63;;
10479;SDS011;12789;42.610;23.040;2024-02-21T12:11:40;9.57;;;6.10;;
10479;SDS011;12789;42.610;23.040;2024-02-21T12:14:07;6.10;;;5.20;;
10479;SDS011;12789;42.610;23.040;2024-02-21T12:16:34;6.90;;;6.20;;
10479;SDS011;12789;42.610;23.040;2024-02-21T12:19:03;7.70;;;6.50;;
10479;SDS011;12789;42.610;23.040;2024-02-21T12:21:30;7.97;;;6.60;;
10479;SDS011;12789;42.610;23.040;2024-02-21T12:23:57;9.73;;;7.50;;
10479;SDS011;12789;42.610;23.040;2024-02-21T12:26:24;7.23;;;5.70;;
10479;SDS011;12789;42.610;23.040;2024-02-21T12:28:52;10.13;;;7.37;;
10479;SDS011;12789;42.610;23.040;2024-02-21T12:31:19;12.10;;;7.70;;
10479;SDS011;12789;42.610;23.040;2024-02-21T12:33:46;8.33;;;6.87;;
10479;SDS011;12789;42.610;23.040;2024-02-21T12:36:22;7.63;;;6.47;;
10479;SDS011;12789;42.610;23.040;2024-02-21T12:38:49;9.70;;;6.40;;
10479;SDS011;12789;42.610;23.040;2024-02-21T12:41:15;6.67;;;5.90;;
10479;SDS011;12789;42.610;23.040;2024-02-21T12:43:42;7.00;;;5.73;;
10479;SDS011;12789;42.610;23.040;2024-02-21T12:46:08;6.53;;;5.87;;
10479;SDS011;12789;42.610;23.040;2024-02-21T12:48:35;6.83;;;6.10;;
10479;SDS011;12789;42.610;23.040;2024-02-21T12:51:02;9.50;;;6.67;;
10479;SDS011;12789;42.610;23.040;2024-02-21T12:53:31;7.33;;;6.60;;
10479;SDS011;12789;42.610;23.040;2024-02-21T12:55:57;8.50;;;5.80;;
10479;SDS011;12789;42.610;23.040;2024-02-21T12:58:24;7.43;;;6.13;;
10479;SDS011;12789;42.610;23.040;2024-02-21T13:00:50;5.80;;;4.93;;
10479;SDS011;12789;42.610;23.040;2024-02-21T13:03:17;20.33;;;13.33;;
10479;SDS011;12789;42.610;23.040;2024-02-21T13:05:43;25.00;;;14.77;;
10479;SDS011;12789;42.610;23.040;2024-02-21T13:08:10;11.03;;;7.63;;
10479;SDS011;12789;42.610;23.040;2024-02-21T13:10:38;6.23;;;5.60;;
10479;SDS011;12789;42.610;23.040;2024-02-21T13:13:04;14.27;;;8.17;;
10479;SDS011;12789;42.610;23.040;2024-02-21T13:15:31;12.23;;;9.17;;
10479;SDS011;12789;42.610;23.040;2024-02-21T13:17:58;8.67;;;6.17;;
10479;SDS011;12789;42.610;23.040;2024-02-21T13:20:24;8.70;;;6.90;;
10479;SDS011;12789;42.610;23.040;2024-02-21T13:22:51;10.47;;;7.80;;
10479;SDS011;12789;42.610;23.040;2024-02-21T13:25:18;10.63;;;8.53;;
10479;SDS011;12789;42.610;23.040;2024-02-21T13:27:47;15.80;;;9.77;;
10479;SDS011;12789;42.610;23.040;2024-02-21T13:30:14;7.53;;;6.47;;
10479;SDS011;12789;42.610;23.040;2024-02-21T13:32:42;13.03;;;9.63;;
10479;SDS011;12789;42.610;23.040;2024-02-21T13:35:11;6.93;;;5.10;;
10479;SDS011;12789;42.610;23.040;2024-02-21T13:37:37;5.67;;;5.10;;
10479;SDS011;12789;42.610;23.040;2024-02-21T13:40:04;6.60;;;4.90;;
10479;SDS011;12789;42.610;23.040;2024-02-21T13:42:31;7.50;;;6.20;;
10479;SDS011;12789;42.610;23.040;2024-02-21T13:44:59;10.00;;;8.07;;
10479;SDS011;12789;42.610;23.040;2024-02-21T13:47:26;7.27;;;5.60;;
10479;SDS011;12789;42.610;23.040;2024-02-21T13:49:52;6.60;;;5.33;;
10479;SDS011;12789;42.610;23.040;2024-02-21T13:52:22;6.53;;;5.57;;
10479;SDS011;12789;42.610;23.040;2024-02-21T13:54:53;6.87;;;6.10;;
10479;SDS011;12789;42.610;23.040;2024-02-21T13:57:19;5.70;;;5.10;;
10479;SDS011;12789;42.610;23.040;2024-02-21T13:59:46;9.17;;;6.93;;
10479;SDS011;12789;42.610;23.040;2024-02-21T14:02:14;9.80;;;7.53;;
10479;SDS011;12789;42.610;23.040;2024-02-21T14:04:40;8.07;;;5.40;;
10479;SDS011;12789;42.610;23.040;2024-02-21T14:07:07;7.70;;;6.10;;
10479;SDS011;12789;42.610;23.040;2024-02-21T14:09:34;7.20;;;6.50;;
10479;SDS011;12789;42.610;23.040;2024-02-21T14:12:00;11.77;;;8.97;;
10479;SDS011;12789;42.610;23.040;2024-02-21T14:14:27;12.47;;;8.10;;
10479;SDS011;12789;42.610;23.040;2024-02-21T14:16:53;9.10;;;7.43;;
10479;SDS011;12789;42.610;23.040;2024-02-21T14:19:22;13.57;;;7.93;;
10479;SDS011;12789;42.610;23.040;2024-02-21T14:21:49;10.60;;;6.03;;
10479;SDS011;12789;42.610;23.040;2024-02-21T14:24:16;10.10;;;7.03;;
10479;SDS011;12789;42.610;23.040;2024-02-21T14:26:42;9.97;;;7.77;;
10479;SDS011;12789;42.610;23.040;2024-02-21T14:29:09;9.73;;;6.57;;
10479;SDS011;12789;42.610;23.040;2024-02-21T14:31:35;10.90;;;7.90;;
10479;SDS011;12789;42.610;23.040;2024-02-21T14:34:02;8.03;;;7.23;;
10479;SDS011;12789;42.610;23.040;2024-02-21T14:36:30;7.80;;;6.93;;
10479;SDS011;12789;42.610;23.040;2024-02-21T14:38:57;8.50;;;7.43;;
10479;SDS011;12789;42.610;23.040;2024-02-21T14:41:24;8.03;;;6.10;;
10479;SDS011;12789;42.610;23.040;2024-02-21T14:43:52;8.77;;;5.57;;
10479;SDS011;12789;42.610;23.040;2024-02-21T14:46:21;5.70;;;5.20;;
10479;SDS011;12789;42.610;23.040;2024-02-21T14:48:47;5.97;;;4.77;;
10479;SDS011;12789;42.610;23.040;2024-02-21T14:51:14;6.23;;;4.83;;
10479;SDS011;12789;42.610;23.040;2024-02-21T14:53:42;6.40;;;5.80;;
10479;SDS011;12789;42.610;23.040;2024-02-21T14:56:12;8.27;;;5.73;;
10479;SDS011;12789;42.610;23.040;2024-02-21T14:58:39;5.13;;;4.63;;
10479;SDS011;12789;42.610;23.040;2024-02-21T15:01:06;9.83;;;6.00;;
10479;SDS011;12789;42.610;23.040;2024-02-21T15:03:35;7.27;;;6.23;;
10479;SDS011;12789;42.610;23.040;2024-02-21T15:06:02;8.57;;;6.17;;